sensor_id;sensor_type;location;lat;lon;timestamp;temperature;humidity
5429;DHT22;2737;52.386;9.980;2023-04-01T00:02:12;9.70;99.90
5429;DHT22;2737;52.386;9.980;2023-04-01T00:04:39;9.70;99.90
5429;DHT22;2737;52.386;9.980;2023-04-01T00:07:06;9.60;99.90
5429;DHT22;2737;52.386;9.980;2023-04-01T00:09:33;9.60;99.90
5429;DHT22;2737;52.386;9.980;2023-04-01T00:12:01;9.60;99.90
5429;DHT22;2737;52.386;9.980;2023-04-01T00:14:29;9.70;99.90
5429;DHT22;2737;52.386;9.980;2023-04-01T00:16:56;9.70;99.90
5429;DHT22;2737;52.386;9.980;2023-04-01T00:19:23;9.70;99.90
5429;DHT22;2737;52.386;9.980;2023-04-01T00:21:50;9.70;99.90
5429;DHT22;2737;52.386;9.980;2023-04-01T00:24:17;9.60;99.90
5429;DHT22;2737;52.386;9.980;2023-04-01T00:26:44;9.60;99.90
5429;DHT22;2737;52.386;9.980;2023-04-01T00:29:13;9.60;99.90
5429;DHT22;2737;52.386;9.980;2023-04-01T00:31:41;9.60;99.90
5429;DHT22;2737;52.386;9.980;2023-04-01T00:34:08;9.60;99.90
5429;DHT22;2737;52.386;9.980;2023-04-01T00:36:35;9.60;99.90
5429;DHT22;2737;52.386;9.980;2023-04-01T00:39:02;9.60;99.90
5429;DHT22;2737;52.386;9.980;2023-04-01T00:41:29;9.60;99.90
5429;DHT22;2737;52.386;9.980;2023-04-01T00:44:14;9.70;99.90
5429;DHT22;2737;52.386;9.980;2023-04-01T00:46:43;9.60;99.90
5429;DHT22;2737;52.386;9.980;2023-04-01T00:49:10;9.70;99.90
5429;DHT22;2737;52.386;9.980;2023-04-01T00:51:39;9.70;99.90
5429;DHT22;2737;52.386;9.980;2023-04-01T00:54:09;9.60;99.90
5429;DHT22;2737;52.386;9.980;2023-04-01T00:56:38;9.60;99.90
5429;DHT22;2737;52.386;9.980;2023-04-01T00:59:11;9.60;99.90
5429;DHT22;2737;52.386;9.980;2023-04-01T01:01:40;9.60;99.90
5429;DHT22;2737;52.386;9.980;2023-04-01T01:04:24;9.60;99.90
5429;DHT22;2737;52.386;9.980;2023-04-01T01:06:57;9.60;99.90
5429;DHT22;2737;52.386;9.980;2023-04-01T01:09:32;9.60;99.90
5429;DHT22;2737;52.386;9.980;2023-04-01T01:12:07;9.60;99.90
5429;DHT22;2737;52.386;9.980;2023-04-01T01:14:46;9.60;99.90
5429;DHT22;2737;52.386;9.980;2023-04-01T01:17:22;9.60;99.90
5429;DHT22;2737;52.386;9.980;2023-04-01T01:20:19;9.50;99.90
5429;DHT22;2737;52.386;9.980;2023-04-01T01:23:07;9.50;99.90
5429;DHT22;2737;52.386;9.980;2023-04-01T01:25:46;9.50;99.90
5429;DHT22;2737;52.386;9.980;2023-04-01T01:28:30;9.50;99.90
5429;DHT22;2737;52.386;9.980;2023-04-01T01:31:09;9.50;99.90
5429;DHT22;2737;52.386;9.980;2023-04-01T01:34:02;9.50;99.90
5429;DHT22;2737;52.386;9.980;2023-04-01T01:36:34;9.40;99.90
5429;DHT22;2737;52.386;9.980;2023-04-01T01:39:04;9.40;99.90
5429;DHT22;2737;52.386;9.980;2023-04-01T01:41:32;9.50;99.90
5429;DHT22;2737;52.386;9.980;2023-04-01T01:44:03;9.50;99.90
5429;DHT22;2737;52.386;9.980;2023-04-01T01:46:33;9.40;99.90
5429;DHT22;2737;52.386;9.980;2023-04-01T01:49:00;9.50;99.90
5429;DHT22;2737;52.386;9.980;2023-04-01T01:51:29;9.40;99.90
5429;DHT22;2737;52.386;9.980;2023-04-01T01:53:58;9.40;99.90
5429;DHT22;2737;52.386;9.980;2023-04-01T01:56:27;9.40;99.90
5429;DHT22;2737;52.386;9.980;2023-04-01T01:58:58;9.40;99.90
5429;DHT22;2737;52.386;9.980;2023-04-01T02:01:28;9.40;99.90
5429;DHT22;2737;52.386;9.980;2023-04-01T02:03:56;9.30;99.90
5429;DHT22;2737;52.386;9.980;2023-04-01T02:06:27;9.40;99.90
5429;DHT22;2737;52.386;9.980;2023-04-01T02:08:59;9.30;99.90
5429;DHT22;2737;52.386;9.980;2023-04-01T02:11:30;9.30;99.90
5429;DHT22;2737;52.386;9.980;2023-04-01T02:14:04;9.30;99.90
5429;DHT22;2737;52.386;9.980;2023-04-01T02:16:35;9.30;99.90
5429;DHT22;2737;52.386;9.980;2023-04-01T02:19:04;9.30;99.90
5429;DHT22;2737;52.386;9.980;2023-04-01T02:21:34;9.30;99.90
5429;DHT22;2737;52.386;9.980;2023-04-01T02:24:08;9.40;99.90
5429;DHT22;2737;52.386;9.980;2023-04-01T02:26:36;9.40;99.90
5429;DHT22;2737;52.386;9.980;2023-04-01T02:29:05;9.40;99.90
5429;DHT22;2737;52.386;9.980;2023-04-01T02:31:33;9.40;99.90
5429;DHT22;2737;52.386;9.980;2023-04-01T02:34:02;9.40;99.90
5429;DHT22;2737;52.386;9.980;2023-04-01T02:36:29;9.40;99.90
5429;DHT22;2737;52.386;9.980;2023-04-01T02:38:57;9.40;99.90
5429;DHT22;2737;52.386;9.980;2023-04-01T02:41:29;9.30;99.90
5429;DHT22;2737;52.386;9.980;2023-04-01T02:43:56;9.30;99.90
5429;DHT22;2737;52.386;9.980;2023-04-01T02:46:24;9.30;99.90
5429;DHT22;2737;52.386;9.980;2023-04-01T02:48:51;9.30;99.90
5429;DHT22;2737;52.386;9.980;2023-04-01T02:51:19;9.40;99.90
5429;DHT22;2737;52.386;9.980;2023-04-01T02:53:46;9.30;99.90
5429;DHT22;2737;52.386;9.980;2023-04-01T02:56:13;9.30;99.90
5429;DHT22;2737;52.386;9.980;2023-04-01T02:58:41;9.30;99.90
5429;DHT22;2737;52.386;9.980;2023-04-01T03:01:08;9.30;99.90
5429;DHT22;2737;52.386;9.980;2023-04-01T03:03:35;9.30;99.90
5429;DHT22;2737;52.386;9.980;2023-04-01T03:06:05;9.30;99.90
5429;DHT22;2737;52.386;9.980;2023-04-01T03:08:32;9.30;99.90
5429;DHT22;2737;52.386;9.980;2023-04-01T03:10:59;9.30;99.90
5429;DHT22;2737;52.386;9.980;2023-04-01T03:13:26;9.30;99.90
5429;DHT22;2737;52.386;9.980;2023-04-01T03:15:55;9.30;99.90
5429;DHT22;2737;52.386;9.980;2023-04-01T03:18:22;9.30;99.90
5429;DHT22;2737;52.386;9.980;2023-04-01T03:20:49;9.20;99.90
5429;DHT22;2737;52.386;9.980;2023-04-01T03:23:16;9.20;99.90
5429;DHT22;2737;52.386;9.980;2023-04-01T03:25:45;9.30;99.90
5429;DHT22;2737;52.386;9.980;2023-04-01T03:28:12;9.20;99.90
5429;DHT22;2737;52.386;9.980;2023-04-01T03:30:39;9.20;99.90
5429;DHT22;2737;52.386;9.980;2023-04-01T03:33:07;9.20;99.90
5429;DHT22;2737;52.386;9.980;2023-04-01T03:35:34;9.20;99.90
5429;DHT22;2737;52.386;9.980;2023-04-01T03:38:02;9.20;99.90
5429;DHT22;2737;52.386;9.980;2023-04-01T03:40:29;9.20;99.90
5429;DHT22;2737;52.386;9.980;2023-04-01T03:42:56;9.20;99.90
5429;DHT22;2737;52.386;9.980;2023-04-01T03:45:23;9.20;99.90
5429;DHT22;2737;52.386;9.980;2023-04-01T03:47:50;9.20;99.90
5429;DHT22;2737;52.386;9.980;2023-04-01T03:50:19;9.20;99.90
5429;DHT22;2737;52.386;9.980;2023-04-01T03:52:46;9.20;99.90
5429;DHT22;2737;52.386;9.980;2023-04-01T03:55:13;9.20;99.90
5429;DHT22;2737;52.386;9.980;2023-04-01T03:57:41;9.20;99.90
5429;DHT22;2737;52.386;9.980;2023-04-01T04:00:08;9.20;99.90
5429;DHT22;2737;52.386;9.980;2023-04-01T04:02:36;9.20;99.90
5429;DHT22;2737;52.386;9.980;2023-04-01T04:05:03;9.10;99.90
5429;DHT22;2737;52.386;9.980;2023-04-01T04:07:34;9.10;99.90
5429;DHT22;2737;52.386;9.980;2023-04-01T04:10:01;9.10;99.90
5429;DHT22;2737;52.386;9.980;2023-04-01T04:12:28;9.10;99.90
5429;DHT22;2737;52.386;9.980;2023-04-01T04:14:55;9.10;99.90
5429;DHT22;2737;52.386;9.980;2023-04-01T04:17:22;9.10;99.90
5429;DHT22;2737;52.386;9.980;2023-04-01T04:19:49;9.10;99.90
5429;DHT22;2737;52.386;9.980;2023-04-01T04:22:17;9.10;99.90
5429;DHT22;2737;52.386;9.980;2023-04-01T04:24:46;9.10;99.90
5429;DHT22;2737;52.386;9.980;2023-04-01T04:27:13;9.10;99.90
5429;DHT22;2737;52.386;9.980;2023-04-01T04:29:41;9.00;99.90
5429;DHT22;2737;52.386;9.980;2023-04-01T04:32:09;9.10;99.90
5429;DHT22;2737;52.386;9.980;2023-04-01T04:34:36;9.10;99.90
5429;DHT22;2737;52.386;9.980;2023-04-01T04:37:03;9.00;99.90
5429;DHT22;2737;52.386;9.980;2023-04-01T04:39:30;9.10;99.90
5429;DHT22;2737;52.386;9.980;2023-04-01T04:41:58;9.10;99.90
5429;DHT22;2737;52.386;9.980;2023-04-01T04:44:25;9.10;99.90
5429;DHT22;2737;52.386;9.980;2023-04-01T04:46:52;9.10;99.90
5429;DHT22;2737;52.386;9.980;2023-04-01T04:49:19;9.10;99.90
5429;DHT22;2737;52.386;9.980;2023-04-01T04:51:46;9.10;99.90
5429;DHT22;2737;52.386;9.980;2023-04-01T04:54:13;9.10;99.90
5429;DHT22;2737;52.386;9.980;2023-04-01T04:56:40;9.10;99.90
5429;DHT22;2737;52.386;9.980;2023-04-01T04:59:09;9.10;99.90
5429;DHT22;2737;52.386;9.980;2023-04-01T05:01:36;9.10;99.90
5429;DHT22;2737;52.386;9.980;2023-04-01T05:04:03;9.00;99.90
5429;DHT22;2737;52.386;9.980;2023-04-01T05:06:30;9.10;99.90
5429;DHT22;2737;52.386;9.980;2023-04-01T05:08:57;9.10;99.90
5429;DHT22;2737;52.386;9.980;2023-04-01T05:11:25;9.00;99.90
5429;DHT22;2737;52.386;9.980;2023-04-01T05:13:53;9.00;99.90
5429;DHT22;2737;52.386;9.980;2023-04-01T05:16:21;9.00;99.90
5429;DHT22;2737;52.386;9.980;2023-04-01T05:18:48;9.00;99.90
5429;DHT22;2737;52.386;9.980;2023-04-01T05:21:15;9.00;99.90
5429;DHT22;2737;52.386;9.980;2023-04-01T05:23:43;9.00;99.90
5429;DHT22;2737;52.386;9.980;2023-04-01T05:26:11;9.00;99.90
5429;DHT22;2737;52.386;9.980;2023-04-01T05:28:39;9.00;99.90
5429;DHT22;2737;52.386;9.980;2023-04-01T05:31:06;9.00;99.90
5429;DHT22;2737;52.386;9.980;2023-04-01T05:33:35;9.00;99.90
5429;DHT22;2737;52.386;9.980;2023-04-01T05:36:09;9.00;99.90
5429;DHT22;2737;52.386;9.980;2023-04-01T05:38:37;9.00;99.90
5429;DHT22;2737;52.386;9.980;2023-04-01T05:41:04;9.00;99.90
5429;DHT22;2737;52.386;9.980;2023-04-01T05:43:35;9.00;99.90
5429;DHT22;2737;52.386;9.980;2023-04-01T05:46:02;9.00;99.90
5429;DHT22;2737;52.386;9.980;2023-04-01T05:48:30;9.00;99.90
5429;DHT22;2737;52.386;9.980;2023-04-01T05:50:58;9.10;99.90
5429;DHT22;2737;52.386;9.980;2023-04-01T05:53:25;9.10;99.90
5429;DHT22;2737;52.386;9.980;2023-04-01T05:55:52;9.10;99.90
5429;DHT22;2737;52.386;9.980;2023-04-01T05:58:19;9.10;99.90
5429;DHT22;2737;52.386;9.980;2023-04-01T06:00:46;9.20;99.90
5429;DHT22;2737;52.386;9.980;2023-04-01T06:03:13;9.20;99.90
5429;DHT22;2737;52.386;9.980;2023-04-01T06:05:41;9.20;99.90
5429;DHT22;2737;52.386;9.980;2023-04-01T06:08:15;9.20;99.90
5429;DHT22;2737;52.386;9.980;2023-04-01T06:10:53;9.30;99.90
5429;DHT22;2737;52.386;9.980;2023-04-01T06:13:31;9.30;99.90
5429;DHT22;2737;52.386;9.980;2023-04-01T06:16:07;9.30;99.90
5429;DHT22;2737;52.386;9.980;2023-04-01T06:18:58;9.30;99.90
5429;DHT22;2737;52.386;9.980;2023-04-01T06:21:36;9.30;99.90
5429;DHT22;2737;52.386;9.980;2023-04-01T06:24:24;9.40;99.90
5429;DHT22;2737;52.386;9.980;2023-04-01T06:27:01;9.40;99.90
5429;DHT22;2737;52.386;9.980;2023-04-01T06:29:49;9.40;99.90
5429;DHT22;2737;52.386;9.980;2023-04-01T06:32:53;9.50;99.90
5429;DHT22;2737;52.386;9.980;2023-04-01T06:35:35;9.50;99.90
5429;DHT22;2737;52.386;9.980;2023-04-01T06:38:20;9.60;99.90
5429;DHT22;2737;52.386;9.980;2023-04-01T06:41:14;9.60;99.90
5429;DHT22;2737;52.386;9.980;2023-04-01T06:43:52;9.70;99.90
5429;DHT22;2737;52.386;9.980;2023-04-01T06:46:30;9.80;99.90
5429;DHT22;2737;52.386;9.980;2023-04-01T06:49:12;9.80;99.90
5429;DHT22;2737;52.386;9.980;2023-04-01T06:51:50;9.90;99.90
5429;DHT22;2737;52.386;9.980;2023-04-01T06:54:23;9.90;99.90
5429;DHT22;2737;52.386;9.980;2023-04-01T06:56:58;10.00;99.90
5429;DHT22;2737;52.386;9.980;2023-04-01T06:59:27;10.00;99.90
5429;DHT22;2737;52.386;9.980;2023-04-01T07:01:57;10.00;99.90
5429;DHT22;2737;52.386;9.980;2023-04-01T07:04:27;10.10;99.90
5429;DHT22;2737;52.386;9.980;2023-04-01T07:06:59;10.20;99.90
5429;DHT22;2737;52.386;9.980;2023-04-01T07:09:32;10.20;99.90
5429;DHT22;2737;52.386;9.980;2023-04-01T07:12:10;10.30;99.90
5429;DHT22;2737;52.386;9.980;2023-04-01T07:14:41;10.30;99.90
5429;DHT22;2737;52.386;9.980;2023-04-01T07:17:13;10.40;99.90
5429;DHT22;2737;52.386;9.980;2023-04-01T07:19:45;10.50;99.90
5429;DHT22;2737;52.386;9.980;2023-04-01T07:22:20;10.50;99.90
5429;DHT22;2737;52.386;9.980;2023-04-01T07:24:48;10.60;99.90
5429;DHT22;2737;52.386;9.980;2023-04-01T07:27:17;10.60;99.90
5429;DHT22;2737;52.386;9.980;2023-04-01T07:29:44;10.60;99.90
5429;DHT22;2737;52.386;9.980;2023-04-01T07:32:20;10.70;99.90
5429;DHT22;2737;52.386;9.980;2023-04-01T07:35:04;10.70;99.90
5429;DHT22;2737;52.386;9.980;2023-04-01T07:37:39;10.80;99.90
5429;DHT22;2737;52.386;9.980;2023-04-01T07:40:21;10.80;99.90
5429;DHT22;2737;52.386;9.980;2023-04-01T07:43:08;10.80;99.90
5429;DHT22;2737;52.386;9.980;2023-04-01T07:45:45;10.80;99.90
5429;DHT22;2737;52.386;9.980;2023-04-01T07:48:23;10.90;99.90
5429;DHT22;2737;52.386;9.980;2023-04-01T07:50:59;10.80;99.90
5429;DHT22;2737;52.386;9.980;2023-04-01T07:53:34;10.90;99.90
5429;DHT22;2737;52.386;9.980;2023-04-01T07:56:07;10.90;99.90
5429;DHT22;2737;52.386;9.980;2023-04-01T07:58:45;10.90;99.90
5429;DHT22;2737;52.386;9.980;2023-04-01T08:01:20;11.00;99.90
5429;DHT22;2737;52.386;9.980;2023-04-01T08:04:08;11.20;99.90
5429;DHT22;2737;52.386;9.980;2023-04-01T08:06:44;11.20;99.90
5429;DHT22;2737;52.386;9.980;2023-04-01T08:09:16;11.20;99.90
5429;DHT22;2737;52.386;9.980;2023-04-01T08:11:57;11.30;99.90
5429;DHT22;2737;52.386;9.980;2023-04-01T08:14:33;11.30;99.90
5429;DHT22;2737;52.386;9.980;2023-04-01T08:17:07;11.40;99.90
5429;DHT22;2737;52.386;9.980;2023-04-01T08:19:50;11.50;99.90
5429;DHT22;2737;52.386;9.980;2023-04-01T08:22:25;11.50;99.90
5429;DHT22;2737;52.386;9.980;2023-04-01T08:24:55;11.60;99.90
5429;DHT22;2737;52.386;9.980;2023-04-01T08:27:28;11.70;99.90
5429;DHT22;2737;52.386;9.980;2023-04-01T08:30:02;11.90;99.90
5429;DHT22;2737;52.386;9.980;2023-04-01T08:32:34;12.00;99.90
5429;DHT22;2737;52.386;9.980;2023-04-01T08:35:08;12.00;99.90
5429;DHT22;2737;52.386;9.980;2023-04-01T08:37:39;12.00;99.90
5429;DHT22;2737;52.386;9.980;2023-04-01T08:40:55;12.20;99.90
5429;DHT22;2737;52.386;9.980;2023-04-01T08:43:41;12.30;99.90
5429;DHT22;2737;52.386;9.980;2023-04-01T08:46:33;12.40;99.90
5429;DHT22;2737;52.386;9.980;2023-04-01T08:49:09;12.40;99.90
5429;DHT22;2737;52.386;9.980;2023-04-01T08:51:53;12.50;99.90
5429;DHT22;2737;52.386;9.980;2023-04-01T08:57:39;12.40;99.90
5429;DHT22;2737;52.386;9.980;2023-04-01T09:00:19;12.40;99.90
5429;DHT22;2737;52.386;9.980;2023-04-01T09:03:13;12.50;99.90
5429;DHT22;2737;52.386;9.980;2023-04-01T09:06:10;12.60;99.90
5429;DHT22;2737;52.386;9.980;2023-04-01T09:08:49;12.60;99.90
5429;DHT22;2737;52.386;9.980;2023-04-01T09:11:28;12.60;99.90
5429;DHT22;2737;52.386;9.980;2023-04-01T09:17:25;12.70;99.90
5429;DHT22;2737;52.386;9.980;2023-04-01T09:20:19;12.80;99.90
5429;DHT22;2737;52.386;9.980;2023-04-01T09:23:04;12.70;99.90
5429;DHT22;2737;52.386;9.980;2023-04-01T09:25:48;12.70;99.90
5429;DHT22;2737;52.386;9.980;2023-04-01T09:28:20;12.90;99.90
5429;DHT22;2737;52.386;9.980;2023-04-01T09:31:11;12.90;99.90
5429;DHT22;2737;52.386;9.980;2023-04-01T09:34:13;12.90;99.90
5429;DHT22;2737;52.386;9.980;2023-04-01T09:36:52;13.00;99.90
5429;DHT22;2737;52.386;9.980;2023-04-01T09:39:35;12.80;99.90
5429;DHT22;2737;52.386;9.980;2023-04-01T09:42:29;12.70;99.90
5429;DHT22;2737;52.386;9.980;2023-04-01T09:45:01;12.70;99.90
5429;DHT22;2737;52.386;9.980;2023-04-01T09:47:43;12.60;99.90
5429;DHT22;2737;52.386;9.980;2023-04-01T09:50:32;12.60;99.90
5429;DHT22;2737;52.386;9.980;2023-04-01T09:53:14;12.60;99.90
5429;DHT22;2737;52.386;9.980;2023-04-01T09:56:17;12.70;99.90
5429;DHT22;2737;52.386;9.980;2023-04-01T10:05:04;12.80;99.90
5429;DHT22;2737;52.386;9.980;2023-04-01T10:11:10;12.70;99.90
5429;DHT22;2737;52.386;9.980;2023-04-01T10:13:54;12.60;99.90
5429;DHT22;2737;52.386;9.980;2023-04-01T10:20:01;12.40;99.90
5429;DHT22;2737;52.386;9.980;2023-04-01T10:23:02;12.30;99.90
5429;DHT22;2737;52.386;9.980;2023-04-01T10:26:01;12.20;99.90
5429;DHT22;2737;52.386;9.980;2023-04-01T10:28:56;12.10;99.90
5429;DHT22;2737;52.386;9.980;2023-04-01T10:38:01;12.00;99.90
5429;DHT22;2737;52.386;9.980;2023-04-01T10:40:43;12.00;99.90
5429;DHT22;2737;52.386;9.980;2023-04-01T10:46:44;12.00;99.90
5429;DHT22;2737;52.386;9.980;2023-04-01T10:55:48;12.20;99.90
5429;DHT22;2737;52.386;9.980;2023-04-01T10:58:52;12.30;99.90
5429;DHT22;2737;52.386;9.980;2023-04-01T11:05:21;12.40;99.90
5429;DHT22;2737;52.386;9.980;2023-04-01T11:14:48;12.40;99.90
5429;DHT22;2737;52.386;9.980;2023-04-01T11:20:43;12.40;99.90
5429;DHT22;2737;52.386;9.980;2023-04-01T11:23:33;12.40;99.90
5429;DHT22;2737;52.386;9.980;2023-04-01T11:26:08;12.40;99.90
5429;DHT22;2737;52.386;9.980;2023-04-01T11:28:58;12.40;99.90
5429;DHT22;2737;52.386;9.980;2023-04-01T11:31:37;12.50;99.90
5429;DHT22;2737;52.386;9.980;2023-04-01T11:34:17;12.50;99.90
5429;DHT22;2737;52.386;9.980;2023-04-01T11:36:55;12.60;99.90
5429;DHT22;2737;52.386;9.980;2023-04-01T11:39:32;12.60;99.90
5429;DHT22;2737;52.386;9.980;2023-04-01T11:42:11;12.70;99.90
5429;DHT22;2737;52.386;9.980;2023-04-01T11:44:50;12.70;99.90
5429;DHT22;2737;52.386;9.980;2023-04-01T11:47:48;12.80;99.90
5429;DHT22;2737;52.386;9.980;2023-04-01T11:50:26;12.90;99.90
5429;DHT22;2737;52.386;9.980;2023-04-01T11:53:10;12.90;99.90
5429;DHT22;2737;52.386;9.980;2023-04-01T11:55:50;12.90;99.90
5429;DHT22;2737;52.386;9.980;2023-04-01T12:01:47;13.10;99.90
5429;DHT22;2737;52.386;9.980;2023-04-01T12:07:53;13.00;99.90
5429;DHT22;2737;52.386;9.980;2023-04-01T12:10:27;12.90;99.90
5429;DHT22;2737;52.386;9.980;2023-04-01T12:13:01;12.80;99.90
5429;DHT22;2737;52.386;9.980;2023-04-01T12:15:41;12.80;99.90
5429;DHT22;2737;52.386;9.980;2023-04-01T12:18:15;12.90;99.90
5429;DHT22;2737;52.386;9.980;2023-04-01T12:20:49;12.80;99.90
5429;DHT22;2737;52.386;9.980;2023-04-01T12:23:36;12.80;99.90
5429;DHT22;2737;52.386;9.980;2023-04-01T12:26:22;12.80;99.90
5429;DHT22;2737;52.386;9.980;2023-04-01T12:29:04;12.90;99.90
5429;DHT22;2737;52.386;9.980;2023-04-01T12:31:41;12.90;99.90
5429;DHT22;2737;52.386;9.980;2023-04-01T12:37:29;12.90;99.90
5429;DHT22;2737;52.386;9.980;2023-04-01T12:40:17;12.90;99.90
5429;DHT22;2737;52.386;9.980;2023-04-01T12:43:07;12.90;99.90
5429;DHT22;2737;52.386;9.980;2023-04-01T12:45:38;13.00;99.90
5429;DHT22;2737;52.386;9.980;2023-04-01T12:54:57;12.90;99.90
5429;DHT22;2737;52.386;9.980;2023-04-01T12:57:58;12.90;99.90
5429;DHT22;2737;52.386;9.980;2023-04-01T13:00:44;12.90;99.90
5429;DHT22;2737;52.386;9.980;2023-04-01T13:03:27;13.00;99.90
5429;DHT22;2737;52.386;9.980;2023-04-01T13:06:21;13.00;99.90
5429;DHT22;2737;52.386;9.980;2023-04-01T13:08:57;13.10;99.90
5429;DHT22;2737;52.386;9.980;2023-04-01T13:11:38;13.10;99.90
5429;DHT22;2737;52.386;9.980;2023-04-01T13:14:31;13.00;99.90
5429;DHT22;2737;52.386;9.980;2023-04-01T13:17:05;12.80;99.90
5429;DHT22;2737;52.386;9.980;2023-04-01T13:19:42;12.80;99.90
5429;DHT22;2737;52.386;9.980;2023-04-01T13:22:16;12.80;99.90
5429;DHT22;2737;52.386;9.980;2023-04-01T13:24:51;12.80;99.90
5429;DHT22;2737;52.386;9.980;2023-04-01T13:27:23;12.70;99.90
5429;DHT22;2737;52.386;9.980;2023-04-01T13:30:16;12.70;99.90
5429;DHT22;2737;52.386;9.980;2023-04-01T13:32:48;12.70;99.90
5429;DHT22;2737;52.386;9.980;2023-04-01T13:35:26;12.60;99.90
5429;DHT22;2737;52.386;9.980;2023-04-01T13:38:08;12.10;99.90
5429;DHT22;2737;52.386;9.980;2023-04-01T13:40:46;11.60;99.90
5429;DHT22;2737;52.386;9.980;2023-04-01T13:43:19;11.40;99.90
5429;DHT22;2737;52.386;9.980;2023-04-01T13:46:09;11.20;99.90
5429;DHT22;2737;52.386;9.980;2023-04-01T13:49:06;11.10;99.90
5429;DHT22;2737;52.386;9.980;2023-04-01T13:52:02;11.00;99.90
5429;DHT22;2737;52.386;9.980;2023-04-01T13:57:48;10.60;99.90
5429;DHT22;2737;52.386;9.980;2023-04-01T14:00:28;10.50;99.90
5429;DHT22;2737;52.386;9.980;2023-04-01T14:06:01;10.30;99.90
5429;DHT22;2737;52.386;9.980;2023-04-01T14:08:40;10.30;99.90
5429;DHT22;2737;52.386;9.980;2023-04-01T14:11:17;10.30;99.90
5429;DHT22;2737;52.386;9.980;2023-04-01T14:13:56;10.20;99.90
5429;DHT22;2737;52.386;9.980;2023-04-01T14:16:48;10.10;99.90
5429;DHT22;2737;52.386;9.980;2023-04-01T14:19:28;10.00;99.90
5429;DHT22;2737;52.386;9.980;2023-04-01T14:22:05;9.90;99.90
5429;DHT22;2737;52.386;9.980;2023-04-01T14:24:50;9.80;99.90
5429;DHT22;2737;52.386;9.980;2023-04-01T14:30:26;9.70;99.90
5429;DHT22;2737;52.386;9.980;2023-04-01T14:32:58;9.70;99.90
5429;DHT22;2737;52.386;9.980;2023-04-01T14:35:38;9.60;99.90
5429;DHT22;2737;52.386;9.980;2023-04-01T14:38:35;9.60;99.90
5429;DHT22;2737;52.386;9.980;2023-04-01T14:41:13;9.60;99.90
5429;DHT22;2737;52.386;9.980;2023-04-01T14:44:16;9.50;99.90
5429;DHT22;2737;52.386;9.980;2023-04-01T14:49:41;9.40;99.90
5429;DHT22;2737;52.386;9.980;2023-04-01T14:52:13;9.30;99.90
5429;DHT22;2737;52.386;9.980;2023-04-01T14:54:44;9.10;99.90
5429;DHT22;2737;52.386;9.980;2023-04-01T14:57:15;9.10;99.90
5429;DHT22;2737;52.386;9.980;2023-04-01T14:59:49;9.10;99.90
5429;DHT22;2737;52.386;9.980;2023-04-01T15:05:31;9.00;99.90
5429;DHT22;2737;52.386;9.980;2023-04-01T15:08:13;8.90;99.90
5429;DHT22;2737;52.386;9.980;2023-04-01T15:11:21;8.90;99.90
5429;DHT22;2737;52.386;9.980;2023-04-01T15:14:17;8.90;99.90
5429;DHT22;2737;52.386;9.980;2023-04-01T15:16:59;8.80;99.90
5429;DHT22;2737;52.386;9.980;2023-04-01T15:19:39;8.70;99.90
5429;DHT22;2737;52.386;9.980;2023-04-01T15:22:34;8.70;99.90
5429;DHT22;2737;52.386;9.980;2023-04-01T15:25:23;8.70;99.90
5429;DHT22;2737;52.386;9.980;2023-04-01T15:27:59;8.70;99.90
5429;DHT22;2737;52.386;9.980;2023-04-01T15:30:34;8.70;99.90
5429;DHT22;2737;52.386;9.980;2023-04-01T15:33:28;8.60;99.90
5429;DHT22;2737;52.386;9.980;2023-04-01T15:36:05;8.60;99.90
5429;DHT22;2737;52.386;9.980;2023-04-01T15:38:40;8.50;99.90
5429;DHT22;2737;52.386;9.980;2023-04-01T15:41:15;8.50;99.90
5429;DHT22;2737;52.386;9.980;2023-04-01T15:43:45;8.50;99.90
5429;DHT22;2737;52.386;9.980;2023-04-01T15:46:43;8.50;99.90
5429;DHT22;2737;52.386;9.980;2023-04-01T15:49:27;8.40;99.90
5429;DHT22;2737;52.386;9.980;2023-04-01T15:52:05;8.40;99.90
5429;DHT22;2737;52.386;9.980;2023-04-01T15:55:03;8.30;99.90
5429;DHT22;2737;52.386;9.980;2023-04-01T15:57:43;8.20;99.90
5429;DHT22;2737;52.386;9.980;2023-04-01T16:00:23;8.20;99.90
5429;DHT22;2737;52.386;9.980;2023-04-01T16:03:08;8.10;99.90
5429;DHT22;2737;52.386;9.980;2023-04-01T16:05:43;8.10;99.90
5429;DHT22;2737;52.386;9.980;2023-04-01T16:08:20;8.10;99.90
5429;DHT22;2737;52.386;9.980;2023-04-01T16:11:08;8.00;99.90
5429;DHT22;2737;52.386;9.980;2023-04-01T16:13:48;8.00;99.90
5429;DHT22;2737;52.386;9.980;2023-04-01T16:16:26;8.00;99.90
5429;DHT22;2737;52.386;9.980;2023-04-01T16:19:10;7.90;99.90
5429;DHT22;2737;52.386;9.980;2023-04-01T16:21:45;7.80;99.90
5429;DHT22;2737;52.386;9.980;2023-04-01T16:24:20;7.80;99.90
5429;DHT22;2737;52.386;9.980;2023-04-01T16:26:53;7.80;99.90
5429;DHT22;2737;52.386;9.980;2023-04-01T16:29:29;7.70;99.90
5429;DHT22;2737;52.386;9.980;2023-04-01T16:32:27;7.70;99.90
5429;DHT22;2737;52.386;9.980;2023-04-01T16:35:03;7.60;99.90
5429;DHT22;2737;52.386;9.980;2023-04-01T16:37:36;7.50;99.90
5429;DHT22;2737;52.386;9.980;2023-04-01T16:40:15;7.50;99.90
5429;DHT22;2737;52.386;9.980;2023-04-01T16:42:48;7.40;99.90
5429;DHT22;2737;52.386;9.980;2023-04-01T16:45:24;7.30;99.90
5429;DHT22;2737;52.386;9.980;2023-04-01T16:48:00;7.30;99.90
5429;DHT22;2737;52.386;9.980;2023-04-01T16:50:43;7.40;99.90
5429;DHT22;2737;52.386;9.980;2023-04-01T16:53:17;7.30;99.90
5429;DHT22;2737;52.386;9.980;2023-04-01T16:55:49;7.20;99.90
5429;DHT22;2737;52.386;9.980;2023-04-01T16:58:22;7.20;99.90
5429;DHT22;2737;52.386;9.980;2023-04-01T17:00:55;7.10;99.90
5429;DHT22;2737;52.386;9.980;2023-04-01T17:03:29;7.10;99.90
5429;DHT22;2737;52.386;9.980;2023-04-01T17:06:07;7.00;99.90
5429;DHT22;2737;52.386;9.980;2023-04-01T17:08:50;7.00;99.90
5429;DHT22;2737;52.386;9.980;2023-04-01T17:11:23;6.90;99.90
5429;DHT22;2737;52.386;9.980;2023-04-01T17:14:00;6.90;99.90
5429;DHT22;2737;52.386;9.980;2023-04-01T17:16:59;6.90;99.90
5429;DHT22;2737;52.386;9.980;2023-04-01T17:19:46;6.90;99.90
5429;DHT22;2737;52.386;9.980;2023-04-01T17:22:25;6.80;99.90
5429;DHT22;2737;52.386;9.980;2023-04-01T17:25:08;6.80;99.90
5429;DHT22;2737;52.386;9.980;2023-04-01T17:27:44;6.70;99.90
5429;DHT22;2737;52.386;9.980;2023-04-01T17:30:23;6.70;99.90
5429;DHT22;2737;52.386;9.980;2023-04-01T17:35:43;6.60;99.90
5429;DHT22;2737;52.386;9.980;2023-04-01T17:38:20;6.60;99.90
5429;DHT22;2737;52.386;9.980;2023-04-01T17:40:59;6.50;99.90
5429;DHT22;2737;52.386;9.980;2023-04-01T17:43:37;6.50;99.90
5429;DHT22;2737;52.386;9.980;2023-04-01T17:46:11;6.50;99.90
5429;DHT22;2737;52.386;9.980;2023-04-01T17:48:55;6.40;99.90
5429;DHT22;2737;52.386;9.980;2023-04-01T17:51:31;6.40;99.90
5429;DHT22;2737;52.386;9.980;2023-04-01T17:54:10;6.40;99.90
5429;DHT22;2737;52.386;9.980;2023-04-01T17:56:52;6.40;99.90
5429;DHT22;2737;52.386;9.980;2023-04-01T17:59:25;6.30;99.90
5429;DHT22;2737;52.386;9.980;2023-04-01T18:02:02;6.40;99.90
5429;DHT22;2737;52.386;9.980;2023-04-01T18:04:43;6.30;99.90
5429;DHT22;2737;52.386;9.980;2023-04-01T18:07:39;6.30;99.90
5429;DHT22;2737;52.386;9.980;2023-04-01T18:10:20;6.30;99.90
5429;DHT22;2737;52.386;9.980;2023-04-01T18:16:01;6.30;99.90
5429;DHT22;2737;52.386;9.980;2023-04-01T18:18:48;6.20;99.90
5429;DHT22;2737;52.386;9.980;2023-04-01T18:21:23;6.20;99.90
5429;DHT22;2737;52.386;9.980;2023-04-01T18:23:58;6.10;99.90
5429;DHT22;2737;52.386;9.980;2023-04-01T18:26:29;6.00;99.90
5429;DHT22;2737;52.386;9.980;2023-04-01T18:28:59;6.00;99.90
5429;DHT22;2737;52.386;9.980;2023-04-01T18:31:34;6.00;99.90
5429;DHT22;2737;52.386;9.980;2023-04-01T18:34:07;6.00;99.90
5429;DHT22;2737;52.386;9.980;2023-04-01T18:36:43;5.90;99.90
5429;DHT22;2737;52.386;9.980;2023-04-01T18:39:15;5.80;99.90